Time;durP1;ratioP1;P1;durP2;ratioP2;P2;SDS_P1;SDS_P2;PMS_P1;PMS_P2;Temp;Humidity;BMP_temperature;BMP_pressure;BME280_temperature;BME280_humidity;BME280_pressure;Samples;Min_cycle;Max_cycle;Signal;HPM_P1;HPM_P2
2023/01/26 00:06:36;;;;;;;0.20;0.10;;;6.00;99.90;;;;;;21131582;28;20390;-68
2023/01/26 00:16:40;;;;;;;0.20;0.10;;;6.00;99.90;;;;;;21148564;28;20409;-68
2023/01/26 00:26:45;;;;;;;0.20;0.10;;;5.60;99.90;;;;;;21175115;27;20481;-68
2023/01/26 00:36:50;;;;;;;0.20;0.10;;;5.70;99.90;;;;;;21231882;27;20416;-69
2023/01/26 00:46:55;;;;;;;0.20;0.10;;;5.70;99.90;;;;;;21232045;27;20480;-69
2023/01/26 00:56:59;;;;;;;0.20;0.10;;;5.60;99.90;;;;;;21209591;27;20414;-68
2023/01/26 01:07:04;;;;;;;0.20;0.10;;;5.70;99.90;;;;;;21187444;28;20420;-69
2023/01/26 01:17:08;;;;;;;0.20;0.10;;;5.60;99.90;;;;;;21127666;28;20464;-69
2023/01/26 01:27:14;;;;;;;0.20;0.10;;;5.70;99.90;;;;;;21121989;28;20427;-69
2023/01/26 01:37:18;;;;;;;0.20;0.10;;;5.70;99.90;;;;;;21143650;28;20498;-70
2023/01/26 01:47:25;;;;;;;0.20;0.10;;;5.90;99.90;;;;;;21161443;28;20486;-68
2023/01/26 01:57:43;;;;;;;0.20;0.10;;;5.80;99.90;;;;;;21142062;28;20463;-68
2023/01/26 02:07:50;;;;;;;0.20;0.10;;;5.70;99.90;;;;;;21141080;28;20958;-69
2023/01/26 02:17:55;;;;;;;0.20;0.10;;;5.60;99.90;;;;;;21140487;28;20414;-69
2023/01/26 02:28:00;;;;;;;0.20;0.10;;;5.70;99.90;;;;;;21139643;28;20730;-68
2023/01/26 02:38:04;;;;;;;0.20;0.10;;;5.60;99.90;;;;;;21195149;27;20389;-69
2023/01/26 02:48:10;;;;;;;0.20;0.10;;;5.50;99.90;;;;;;21241285;27;20389;-69
2023/01/26 02:58:13;;;;;;;0.20;0.10;;;5.50;99.90;;;;;;21240540;27;20397;-68
2023/01/26 03:08:19;;;;;;;0.20;0.10;;;5.30;99.90;;;;;;21221227;27;20400;-68
2023/01/26 03:28:46;;;;;;;0.20;0.10;;;5.20;99.90;;;;;;21238087;27;20432;-68
2023/01/26 03:38:50;;;;;;;0.20;0.10;;;5.00;99.90;;;;;;21146700;27;20403;-68
2023/01/26 03:59:16;;;;;;;0.20;0.10;;;5.00;99.90;;;;;;21132500;28;20397;-68
2023/01/26 04:09:22;;;;;;;0.20;0.10;;;5.00;99.90;;;;;;21149619;28;20907;-68
2023/01/26 04:29:48;;;;;;;0.20;0.10;;;4.90;99.90;;;;;;21232218;27;20401;-68
2023/01/26 04:39:52;;;;;;;0.20;0.10;;;4.70;99.90;;;;;;21213345;27;20403;-68
2023/01/26 04:49:58;;;;;;;0.20;0.10;;;4.70;99.90;;;;;;21213197;27;20409;-68
2023/01/26 05:00:02;;;;;;;0.20;0.10;;;4.60;99.90;;;;;;21196110;27;20392;-68
2023/01/26 05:10:09;;;;;;;0.20;0.10;;;4.30;99.90;;;;;;21195539;28;20405;-68
2023/01/26 05:20:17;;;;;;;0.20;0.10;;;4.20;99.90;;;;;;21195849;28;20744;-68
2023/01/26 05:30:23;;;;;;;0.20;0.10;;;4.40;99.90;;;;;;21211390;28;20496;-68
2023/01/26 05:40:27;;;;;;;0.20;0.10;;;4.50;99.90;;;;;;21151363;28;20395;-68
2023/01/26 05:50:32;;;;;;;0.20;0.10;;;4.50;99.90;;;;;;21163246;28;20411;-68
2023/01/26 06:00:36;;;;;;;0.20;0.10;;;4.50;99.90;;;;;;21210519;28;20511;-67
2023/01/26 06:10:41;;;;;;;0.20;0.10;;;4.70;99.90;;;;;;21234779;27;20411;-68
2023/01/26 06:20:45;;;;;;;0.20;0.10;;;4.40;99.90;;;;;;21207684;27;20393;-68
2023/01/26 06:30:50;;;;;;;0.20;0.10;;;4.20;99.90;;;;;;21223338;27;20798;-67
2023/01/26 06:40:54;;;;;;;0.20;0.10;;;4.40;99.90;;;;;;21241048;27;20393;-69
2023/01/26 06:51:05;;;;;;;0.20;0.10;;;4.40;99.90;;;;;;21220516;27;20414;-68
2023/01/26 07:01:15;;;;;;;0.20;0.10;;;4.40;99.90;;;;;;21226591;27;21645;-70
2023/01/26 07:11:21;;;;;;;0.20;0.10;;;4.40;99.90;;;;;;21218490;27;20496;-68
2023/01/26 07:21:25;;;;;;;0.20;0.10;;;4.40;99.90;;;;;;21235566;27;20798;-64
2023/01/26 07:31:30;;;;;;;0.20;0.10;;;4.20;99.90;;;;;;21217765;27;20413;-69
2023/01/26 07:41:34;;;;;;;0.20;0.10;;;4.10;99.90;;;;;;21234581;27;20808;-69
2023/01/26 07:51:40;;;;;;;1.80;1.80;;;4.30;99.90;;;;;;21234062;27;20401;-68
2023/01/26 08:01:44;;;;;;;0.20;0.10;;;4.60;99.90;;;;;;21232697;27;20398;-69
2023/01/26 08:11:49;;;;;;;0.20;0.10;;;4.90;99.90;;;;;;21231428;27;20481;-68
2023/01/26 08:21:53;;;;;;;0.20;0.10;;;5.20;99.90;;;;;;21149711;27;20413;-68
2023/01/26 08:31:58;;;;;;;0.20;0.10;;;5.50;99.90;;;;;;21145117;28;20769;-68
2023/01/26 08:42:02;;;;;;;0.20;0.10;;;5.70;99.90;;;;;;21145201;28;20407;-68
2023/01/26 08:52:07;;;;;;;0.20;0.10;;;5.90;99.90;;;;;;21126087;28;20414;-71
2023/01/26 09:02:11;;;;;;;0.20;0.10;;;5.90;99.90;;;;;;21126099;28;20471;-68
2023/01/26 09:12:16;;;;;;;0.20;0.10;;;5.80;99.90;;;;;;21125331;28;20505;-68
2023/01/26 09:22:20;;;;;;;0.20;0.10;;;6.10;99.90;;;;;;21108907;28;20544;-70
2023/01/26 09:32:26;;;;;;;0.20;0.10;;;6.70;99.90;;;;;;21125174;28;21048;-64
2023/01/26 09:42:49;;;;;;;0.20;0.10;;;7.10;99.90;;;;;;21109536;28;20727;-68
2023/01/26 09:52:57;;;;;;;0.20;0.00;;;7.40;99.90;;;;;;21158688;28;20533;-67
2023/01/26 10:03:17;;;;;;;0.20;0.10;;;7.90;99.90;;;;;;21143510;27;20418;-68
2023/01/26 10:13:23;;;;;;;0.20;0.00;;;8.40;99.90;;;;;;21156414;28;20486;-68
2023/01/26 10:23:30;;;;;;;0.20;0.10;;;8.90;99.90;;;;;;21155619;28;20446;-68
2023/01/26 10:33:37;;;;;;;0.20;0.00;;;9.20;99.90;;;;;;21155842;28;20950;-69
2023/01/26 10:43:43;;;;;;;0.20;0.10;;;9.30;99.90;;;;;;21135787;28;20424;-69
2023/01/26 10:53:48;;;;;;;0.20;0.10;;;9.50;99.90;;;;;;21153032;28;20408;-68
2023/01/26 11:04:03;;;;;;;0.20;0.00;;;9.70;99.90;;;;;;21135483;28;20426;-70
2023/01/26 11:14:15;;;;;;;0.20;0.00;;;9.90;99.90;;;;;;21134203;28;20410;-69
2023/01/26 11:24:25;;;;;;;0.20;0.10;;;11.00;99.90;;;;;;21151273;28;20485;-70
2023/01/26 11:34:40;;;;;;;0.20;0.10;;;11.70;99.90;;;;;;21164842;27;20397;-70
2023/01/26 11:45:08;;;;;;;0.20;0.10;;;12.40;99.90;;;;;;21215589;27;20422;-70
2023/01/26 11:55:31;;;;;;;0.20;0.10;;;12.20;99.90;;;;;;21192441;27;20417;-69
2023/01/26 12:05:41;;;;;;;0.20;0.10;;;12.70;99.90;;;;;;21112920;28;20958;-68
2023/01/26 12:15:51;;;;;;;0.20;0.10;;;13.10;99.90;;;;;;21128965;28;20476;-65
2023/01/26 12:25:58;;;;;;;0.20;0.00;;;13.90;99.90;;;;;;21128453;28;20409;-68
2023/01/26 12:36:18;;;;;;;0.20;0.00;;;14.30;99.90;;;;;;21146255;28;20415;-68
2023/01/26 12:46:24;;;;;;;0.20;0.10;;;14.40;99.90;;;;;;21127034;28;20964;-68
2023/01/26 12:56:34;;;;;;;0.20;0.10;;;14.50;99.90;;;;;;21143829;28;20419;-68
2023/01/26 13:06:38;;;;;;;0.20;0.10;;;14.80;99.90;;;;;;21125835;28;20881;-68
2023/01/26 13:16:43;;;;;;;0.20;0.10;;;14.80;99.90;;;;;;21126048;28;20928;-69
2023/01/26 13:26:48;;;;;;;0.20;0.10;;;16.10;99.90;;;;;;21160310;28;20401;-66
2023/01/26 13:36:55;;;;;;;0.20;0.00;;;15.50;99.90;;;;;;21157461;28;20436;-68
2023/01/26 13:47:05;;;;;;;0.20;0.10;;;14.70;99.90;;;;;;21123286;28;20445;-67
2023/01/26 13:57:20;;;;;;;0.20;0.10;;;15.80;99.90;;;;;;21140199;28;21052;-68
2023/01/26 14:07:27;;;;;;;0.20;0.10;;;16.90;99.90;;;;;;21158556;28;20792;-68
2023/01/26 14:17:35;;;;;;;0.20;0.10;;;16.40;99.90;;;;;;21138984;28;20387;-68
2023/01/26 14:27:41;;;;;;;0.20;0.10;;;16.20;99.90;;;;;;21137990;28;20912;-68
2023/01/26 14:37:46;;;;;;;0.20;0.10;;;17.40;99.90;;;;;;21138077;28;20556;-68
2023/01/26 14:47:50;;;;;;;0.20;0.10;;;17.90;99.90;;;;;;21136828;28;20383;-69
2023/01/26 14:57:56;;;;;;;0.20;0.10;;;17.70;99.90;;;;;;21156767;27;20404;-69
2023/01/26 15:08:02;;;;;;;0.20;0.10;;;17.20;99.90;;;;;;21237606;27;20424;-69
2023/01/26 15:18:19;;;;;;;0.20;0.10;;;16.50;99.90;;;;;;21219440;27;20446;-68
2023/01/26 15:28:25;;;;;;;0.20;0.10;;;14.90;99.90;;;;;;21236765;27;20405;-68
2023/01/26 15:38:31;;;;;;;0.20;0.10;;;14.90;99.90;;;;;;21235142;27;20484;-70
2023/01/26 15:48:35;;;;;;;0.20;0.10;;;14.10;99.90;;;;;;21231552;27;20425;-68
2023/01/26 15:58:40;;;;;;;0.20;0.00;;;12.60;99.90;;;;;;21180356;27;20407;-68
2023/01/26 16:08:44;;;;;;;0.20;0.10;;;12.80;99.90;;;;;;21165389;27;20393;-67
2023/01/26 16:18:49;;;;;;;0.20;0.03;;;13.30;99.90;;;;;;21195648;27;20445;-66
2023/01/26 16:28:54;;;;;;;0.20;0.10;;;12.70;99.90;;;;;;21227364;27;20921;-69
2023/01/26 16:38:59;;;;;;;0.20;0.10;;;11.60;99.90;;;;;;21209243;27;20428;-71
2023/01/26 16:49:04;;;;;;;0.20;0.10;;;11.00;99.90;;;;;;21228526;27;20416;-69
2023/01/26 16:59:09;;;;;;;0.20;0.10;;;10.50;99.90;;;;;;21172506;27;20415;-68
2023/01/26 17:09:13;;;;;;;0.20;0.10;;;10.40;99.90;;;;;;21143655;28;20431;-68
2023/01/26 17:19:18;;;;;;;0.20;0.10;;;10.00;99.90;;;;;;21124122;28;20412;-68
2023/01/26 17:29:22;;;;;;;0.20;0.10;;;9.20;99.90;;;;;;21143014;28;20448;-69
2023/01/26 17:39:27;;;;;;;0.20;0.10;;;8.20;99.90;;;;;;21192843;28;20468;-70
2023/01/26 17:49:32;;;;;;;0.20;0.10;;;7.70;99.90;;;;;;21227503;28;20397;-71
2023/01/26 17:59:37;;;;;;;0.20;0.00;;;7.50;99.90;;;;;;21208088;28;20401;-70
2023/01/26 18:09:41;;;;;;;0.20;0.10;;;7.30;99.90;;;;;;21217797;27;20449;-69
2023/01/26 18:19:46;;;;;;;0.20;0.10;;;6.90;99.90;;;;;;21240476;27;20409;-70
2023/01/26 18:29:54;;;;;;;0.20;0.10;;;6.90;99.90;;;;;;21204154;27;20531;-67
2023/01/26 18:39:59;;;;;;;0.20;0.10;;;6.80;99.90;;;;;;21229329;27;20507;-71
2023/01/26 18:50:04;;;;;;;0.20;0.10;;;6.70;99.90;;;;;;21220907;27;20947;-71
2023/01/26 19:00:12;;;;;;;0.20;0.10;;;6.60;99.90;;;;;;21220052;27;20408;-65
2023/01/26 19:10:17;;;;;;;0.20;0.10;;;6.30;99.90;;;;;;21218291;27;20721;-70
2023/01/26 19:20:22;;;;;;;0.20;0.10;;;6.30;99.90;;;;;;21235293;27;20468;-70
2023/01/26 19:30:25;;;;;;;0.20;0.00;;;6.10;99.90;;;;;;21217558;27;20454;-71
2023/01/26 19:40:33;;;;;;;0.20;0.10;;;6.10;99.90;;;;;;21141437;28;20411;-71
2023/01/26 19:50:37;;;;;;;0.20;0.10;;;6.00;99.90;;;;;;21131323;28;20774;-70
2023/01/26 20:00:42;;;;;;;0.20;0.10;;;5.80;99.90;;;;;;21131317;28;20411;-72
2023/01/26 20:10:46;;;;;;;0.20;0.10;;;5.80;99.90;;;;;;21222339;27;20401;-69
2023/01/26 20:20:51;;;;;;;0.20;0.10;;;5.80;99.90;;;;;;21184685;27;20403;-71
2023/01/26 20:30:58;;;;;;;0.20;0.10;;;5.80;99.90;;;;;;21227476;27;20484;-67
2023/01/26 20:41:07;;;;;;;0.20;0.10;;;5.80;99.90;;;;;;21228907;27;20401;-70
2023/01/26 20:51:13;;;;;;;0.20;0.10;;;5.80;99.90;;;;;;21185509;27;20773;-70
2023/01/26 21:01:20;;;;;;;0.20;0.10;;;5.80;99.90;;;;;;21126889;28;20462;-70
2023/01/26 21:11:25;;;;;;;0.20;0.10;;;5.80;99.90;;;;;;21215885;27;20451;-70
2023/01/26 21:21:31;;;;;;;0.20;0.10;;;5.60;99.90;;;;;;21229372;28;20444;-71
2023/01/26 21:31:35;;;;;;;0.20;0.10;;;5.70;99.90;;;;;;21227164;28;20454;-68
2023/01/26 21:41:56;;;;;;;0.20;0.10;;;5.80;99.90;;;;;;21149820;28;20403;-68
2023/01/26 22:02:23;;;;;;;0.20;0.10;;;5.90;99.90;;;;;;21173526;27;20444;-69
2023/01/26 22:12:28;;;;;;;0.20;0.10;;;5.90;99.90;;;;;;21175755;27;20933;-70
2023/01/26 22:22:34;;;;;;;0.20;0.10;;;6.10;99.90;;;;;;21156951;28;20896;-71
2023/01/26 22:32:37;;;;;;;0.20;0.10;;;6.40;99.90;;;;;;21158343;27;20468;-70
2023/01/26 22:42:43;;;;;;;0.20;0.10;;;6.60;99.90;;;;;;21156348;28;20398;-70
2023/01/26 22:52:46;;;;;;;0.20;0.10;;;6.80;99.90;;;;;;21155341;28;20774;-70
2023/01/26 23:02:52;;;;;;;0.20;0.10;;;6.80;99.90;;;;;;21156146;28;20407;-70
2023/01/26 23:12:56;;;;;;;0.20;0.10;;;7.00;99.90;;;;;;21154211;28;20411;-69
2023/01/26 23:23:01;;;;;;;0.20;0.10;;;6.90;99.90;;;;;;21154795;28;20406;-70
2023/01/26 23:33:05;;;;;;;0.20;0.10;;;6.90;99.90;;;;;;21166504;27;20415;-69
2023/01/26 23:43:11;;;;;;;0.20;0.10;;;6.80;99.90;;;;;;21238436;27;20461;-70
2023/01/26 23:53:19;;;;;;;0.20;0.10;;;6.70;99.90;;;;;;21236421;27;20554;-70
